createdAt,value
2019-05-10T00:05:36.571Z,11.80
2019-05-10T00:11:34.541Z,11.80
2019-05-10T00:17:07.080Z,11.60
2019-05-10T00:22:36.024Z,11.40
2019-05-10T00:28:05.840Z,12.20
2019-05-10T00:33:35.227Z,11.60
2019-05-10T00:39:21.187Z,12.00
2019-05-10T00:45:11.389Z,12.30
2019-05-10T00:50:41.519Z,12.30
2019-05-10T00:56:06.588Z,11.90
2019-05-10T01:01:31.626Z,11.70
2019-05-10T01:07:07.487Z,11.20
2019-05-10T01:12:31.977Z,11.70
2019-05-10T01:18:03.934Z,11.60
2019-05-10T01:23:38.641Z,11.50
2019-05-10T01:29:18.839Z,11.20
2019-05-10T01:34:45.139Z,11.60
2019-05-10T01:40:26.050Z,11.90
2019-05-10T01:45:56.422Z,11.30
2019-05-10T01:52:07.301Z,11.60
2019-05-10T02:04:42.819Z,11.60
2019-05-10T02:10:11.096Z,12.10
2019-05-10T02:15:46.005Z,11.50
2019-05-10T02:21:17.099Z,11.50
2019-05-10T02:26:42.277Z,11.50
2019-05-10T02:32:11.219Z,11.00
2019-05-10T02:38:02.624Z,11.20
2019-05-10T02:43:31.917Z,11.30
2019-05-10T02:49:07.571Z,11.60
2019-05-10T02:54:34.376Z,11.30
2019-05-10T02:59:59.528Z,11.30
2019-05-10T03:05:27.259Z,11.40
2019-05-10T03:10:57.027Z,11.00
2019-05-10T03:16:21.090Z,11.00
2019-05-10T03:21:45.692Z,11.50
2019-05-10T03:27:09.212Z,11.50
2019-05-10T03:32:32.760Z,11.20
2019-05-10T03:37:56.387Z,11.40
2019-05-10T03:43:19.776Z,11.30
2019-05-10T03:48:44.564Z,11.30
2019-05-10T03:54:07.975Z,11.20
2019-05-10T03:59:31.424Z,11.40
2019-05-10T04:04:55.114Z,11.30
2019-05-10T04:10:20.867Z,11.20
2019-05-10T04:15:43.263Z,11.10
2019-05-10T04:21:06.883Z,10.70
2019-05-10T04:26:30.674Z,11.60
2019-05-10T04:31:54.482Z,11.30
2019-05-10T04:37:17.912Z,11.20
2019-05-10T04:42:41.250Z,11.50
2019-05-10T04:48:05.090Z,12.40
2019-05-10T04:53:28.569Z,11.30
2019-05-10T04:58:52.071Z,11.70
2019-05-10T05:04:15.786Z,11.40
2019-05-10T05:09:39.318Z,11.70
2019-05-10T05:15:02.589Z,12.10
2019-05-10T05:20:26.201Z,12.00
2019-05-10T05:25:49.773Z,12.00
2019-05-10T05:31:13.549Z,12.10
2019-05-10T05:36:36.856Z,11.80
2019-05-10T05:41:59.920Z,12.00
2019-05-10T05:47:23.806Z,12.20
2019-05-10T05:52:47.136Z,12.20
2019-05-10T05:58:25.336Z,12.30
2019-05-10T06:03:35.230Z,12.40
2019-05-10T06:08:59.663Z,13.00
2019-05-10T06:14:23.042Z,13.50
2019-05-10T06:19:47.671Z,14.00
2019-05-10T06:25:11.378Z,14.10
2019-05-10T06:30:35.483Z,14.10
2019-05-10T06:35:59.615Z,14.30
2019-05-10T06:41:23.255Z,14.20
2019-05-10T06:46:46.560Z,14.50
2019-05-10T06:52:09.890Z,14.70
2019-05-10T06:57:33.575Z,14.40
2019-05-10T07:02:57.235Z,14.10
2019-05-10T07:08:20.737Z,14.00
2019-05-10T07:13:47.109Z,14.10
2019-05-10T07:19:09.119Z,14.20
2019-05-10T07:24:32.887Z,14.40
2019-05-10T07:29:56.776Z,14.50
2019-05-10T07:35:20.257Z,14.40
2019-05-10T07:40:43.468Z,14.50
2019-05-10T07:46:09.022Z,14.70
2019-05-10T07:51:33.059Z,15.20
2019-05-10T07:56:56.828Z,15.80
2019-05-10T08:02:19.978Z,16.40
2019-05-10T08:07:43.611Z,16.90
2019-05-10T08:13:08.435Z,17.40
2019-05-10T08:18:32.096Z,17.20
2019-05-10T08:23:58.954Z,17.30
2019-05-10T08:29:22.524Z,16.90
2019-05-10T08:34:52.207Z,17.10
2019-05-10T08:40:12.803Z,16.80
2019-05-10T08:45:38.700Z,17.20
2019-05-10T08:51:04.022Z,19.30
2019-05-10T08:56:25.922Z,19.20
2019-05-10T09:01:50.903Z,18.50
2019-05-10T09:07:14.517Z,18.30
2019-05-10T09:12:41.850Z,18.10
2019-05-10T09:18:06.534Z,17.40
2019-05-10T09:23:28.212Z,16.90
2019-05-10T09:28:57.613Z,16.80
2019-05-10T09:34:17.633Z,16.80
2019-05-10T09:39:42.393Z,17.20
2019-05-10T09:45:09.498Z,16.90
2019-05-10T09:50:41.421Z,16.90
2019-05-10T09:56:02.596Z,17.10
2019-05-10T10:01:21.929Z,17.30
2019-05-10T10:06:48.228Z,18.40
2019-05-10T10:12:09.947Z,19.40
2019-05-10T10:17:38.669Z,19.10
2019-05-10T10:22:59.147Z,18.50
2019-05-10T10:28:22.854Z,17.30
2019-05-10T10:33:57.349Z,17.60
2019-05-10T10:39:13.198Z,18.00
2019-05-10T10:44:38.525Z,17.70
2019-05-10T10:50:02.911Z,17.60
2019-05-10T10:55:30.538Z,17.60
2019-05-10T11:00:52.556Z,18.00
2019-05-10T11:06:16.021Z,18.70
2019-05-10T11:12:22.721Z,18.80
2019-05-10T11:17:54.956Z,19.30
2019-05-10T11:29:54.904Z,17.60
2019-05-10T11:35:41.534Z,17.40
2019-05-10T11:41:24.837Z,16.40
2019-05-10T11:46:56.946Z,15.90
2019-05-10T11:52:29.038Z,15.30
2019-05-10T11:58:01.938Z,15.10
2019-05-10T12:03:36.754Z,13.80
2019-05-10T12:10:03.330Z,14.20
2019-05-10T12:15:25.418Z,13.90
2019-05-10T12:20:58.628Z,14.30
2019-05-10T12:27:12.697Z,14.90
2019-05-10T12:31:47.486Z,14.90
2019-05-10T12:37:09.082Z,13.80
2019-05-10T12:42:33.213Z,14.60
2019-05-10T12:47:57.379Z,15.50
2019-05-10T12:53:23.848Z,15.20
2019-05-10T12:59:05.602Z,16.20
2019-05-10T13:04:40.426Z,17.60
2019-05-10T13:10:11.818Z,16.80
2019-05-10T13:15:42.209Z,18.60
2019-05-10T13:21:07.935Z,20.80
2019-05-10T13:26:35.470Z,22.00
2019-05-10T13:32:04.393Z,22.80
2019-05-10T13:38:04.496Z,22.60
2019-05-10T13:43:35.929Z,21.30
2019-05-10T13:49:03.694Z,24.00
2019-05-10T13:54:36.066Z,21.70
2019-05-10T14:00:06.630Z,22.90
2019-05-10T14:05:50.654Z,21.00
2019-05-10T14:11:17.279Z,19.50
2019-05-10T14:16:40.876Z,17.90
2019-05-10T14:22:04.126Z,16.70
2019-05-10T14:27:30.063Z,17.00
2019-05-10T14:32:52.639Z,17.10
2019-05-10T14:38:16.214Z,17.60
2019-05-10T14:43:39.644Z,18.20
2019-05-10T14:49:09.598Z,18.40
2019-05-10T14:54:42.517Z,18.40
2019-05-10T14:59:53.327Z,18.90
2019-05-10T15:05:18.250Z,19.80
2019-05-10T15:10:42.006Z,20.30
2019-05-10T15:16:09.796Z,20.10
2019-05-10T15:21:30.523Z,20.00
2019-05-10T15:26:54.688Z,20.60
2019-05-10T15:32:18.711Z,20.90
2019-05-10T15:37:46.515Z,20.80
2019-05-10T15:43:10.706Z,20.90
2019-05-10T15:48:36.566Z,20.00
2019-05-10T15:54:03.609Z,19.30
2019-05-10T15:59:22.529Z,18.70
2019-05-10T16:04:45.900Z,18.10
2019-05-10T16:10:09.410Z,17.80
2019-05-10T16:15:32.603Z,17.30
2019-05-10T16:20:56.374Z,15.60
2019-05-10T16:26:22.884Z,15.10
2019-05-10T16:31:45.192Z,15.30
2019-05-10T16:37:08.853Z,15.80
2019-05-10T16:42:34.652Z,15.90
2019-05-10T16:47:59.758Z,15.80
2019-05-10T16:53:23.538Z,15.70
2019-05-10T16:58:47.726Z,14.40
2019-05-10T17:04:12.223Z,15.00
2019-05-10T17:09:36.051Z,15.20
2019-05-10T17:15:02.997Z,15.70
2019-05-10T17:20:24.658Z,16.00
2019-05-10T17:25:47.820Z,16.40
2019-05-10T17:31:11.338Z,16.10
2019-05-10T17:36:34.966Z,16.10
2019-05-10T17:42:03.183Z,15.80
2019-05-10T17:47:27.260Z,16.00
2019-05-10T17:52:49.115Z,15.90
2019-05-10T17:58:13.088Z,15.90
2019-05-10T18:03:36.302Z,15.60
2019-05-10T18:09:00.304Z,15.60
2019-05-10T18:14:24.248Z,15.80
2019-05-10T18:19:47.793Z,15.70
2019-05-10T18:25:19.275Z,15.70
2019-05-10T18:30:36.008Z,15.60
2019-05-10T18:35:59.911Z,15.60
2019-05-10T18:41:22.936Z,15.50
2019-05-10T18:46:46.242Z,15.40
2019-05-10T18:52:09.795Z,15.40
2019-05-10T18:57:33.161Z,15.30
2019-05-10T19:02:57.203Z,15.20
2019-05-10T19:08:21.400Z,15.10
2019-05-10T19:13:48.019Z,15.10
2019-05-10T19:19:10.386Z,15.00
2019-05-10T19:24:33.468Z,14.90
2019-05-10T19:29:57.498Z,14.80
2019-05-10T19:35:21.266Z,14.80
2019-05-10T19:40:44.543Z,14.70
2019-05-10T19:46:07.635Z,13.80
2019-05-10T19:51:30.838Z,14.20
2019-05-10T19:56:55.466Z,14.10
2019-05-10T20:02:19.538Z,14.30
2019-05-10T20:07:46.271Z,14.20
2019-05-10T20:13:08.110Z,13.80
2019-05-10T20:18:31.864Z,13.90
2019-05-10T20:23:56.774Z,14.00
2019-05-10T20:29:20.478Z,13.10
2019-05-10T20:34:44.419Z,13.30
2019-05-10T20:40:08.364Z,13.70
2019-05-10T20:45:31.903Z,13.80
2019-05-10T20:50:56.050Z,14.00
2019-05-10T20:56:19.828Z,13.60
2019-05-10T21:01:42.920Z,13.40
2019-05-10T21:07:08.049Z,13.70
2019-05-10T21:12:34.440Z,13.60
2019-05-10T21:18:02.280Z,13.50
2019-05-10T21:23:26.651Z,13.70
2019-05-10T21:28:50.656Z,13.80
2019-05-10T21:34:14.376Z,13.30
2019-05-10T21:39:38.052Z,12.00
2019-05-10T21:45:03.003Z,12.80
2019-05-10T21:50:26.134Z,12.70
2019-05-10T21:55:49.547Z,13.20
2019-05-10T22:01:13.684Z,13.30
2019-05-10T22:06:37.784Z,13.20
2019-05-10T22:12:04.754Z,13.20
2019-05-10T22:17:28.857Z,13.40
2019-05-10T22:22:52.984Z,13.40
2019-05-10T22:28:16.847Z,13.50
2019-05-10T22:33:41.344Z,13.60
2019-05-10T22:39:07.825Z,13.60
2019-05-10T22:44:33.517Z,13.70
2019-05-10T22:49:57.134Z,13.60
2019-05-10T22:55:20.862Z,13.60
2019-05-10T23:00:44.941Z,13.70
2019-05-10T23:06:15.400Z,13.60
2019-05-10T23:11:39.551Z,13.60
2019-05-10T23:17:13.501Z,13.70
2019-05-10T23:22:41.130Z,13.60
2019-05-10T23:28:06.468Z,13.60
2019-05-10T23:33:31.929Z,13.60
2019-05-10T23:38:55.180Z,13.60
2019-05-10T23:44:18.718Z,13.50
2019-05-10T23:49:47.666Z,13.50
2019-05-10T23:55:15.104Z,13.50
